createdAt,value
2018-04-26T00:00:11.626Z,1.609344
2018-04-26T00:00:24.073Z,6.437376
2018-04-26T00:00:36.494Z,6.437376
2018-04-26T00:00:48.917Z,6.437376
2018-04-26T00:01:01.332Z,6.437376
2018-04-26T00:01:13.741Z,3.218688
2018-04-26T00:01:26.183Z,3.218688
2018-04-26T00:01:38.606Z,8.04672
2018-04-26T00:01:51.152Z,8.04672
2018-04-26T00:02:03.585Z,8.04672
2018-04-26T00:02:16.010Z,3.218688
2018-04-26T00:02:28.425Z,9.656064
2018-04-26T00:02:40.855Z,9.656064
2018-04-26T00:02:53.285Z,9.656064
2018-04-26T00:03:05.703Z,6.437376
2018-04-26T00:03:18.118Z,8.04672
2018-04-26T00:03:30.532Z,8.04672
2018-04-26T00:03:42.958Z,8.04672
2018-04-26T00:03:55.382Z,8.04672
2018-04-26T00:04:07.783Z,6.437376
2018-04-26T00:04:20.225Z,6.437376
2018-04-26T00:04:32.640Z,6.437376
2018-04-26T00:04:45.056Z,6.437376
2018-04-26T00:04:57.482Z,6.437376
2018-04-26T00:05:09.908Z,3.218688
2018-04-26T00:05:22.313Z,3.218688
2018-04-26T00:05:34.721Z,3.218688
2018-04-26T00:05:47.138Z,3.218688
2018-04-26T00:05:59.554Z,6.437376
2018-04-26T00:06:11.978Z,6.437376
2018-04-26T00:06:24.401Z,6.437376
2018-04-26T00:06:36.813Z,6.437376
2018-04-26T00:06:49.308Z,6.437376
2018-04-26T00:07:01.731Z,6.437376
2018-04-26T00:07:14.158Z,3.218688
2018-04-26T00:07:26.561Z,3.218688
2018-04-26T00:07:38.982Z,3.218688
2018-04-26T00:07:51.422Z,6.437376
2018-04-26T00:08:03.847Z,6.437376
2018-04-26T00:08:16.284Z,3.218688
2018-04-26T00:08:28.699Z,3.218688
2018-04-26T00:08:41.107Z,4.828032
2018-04-26T00:08:53.510Z,4.828032
2018-04-26T00:09:05.924Z,6.437376
2018-04-26T00:09:18.338Z,6.437376
2018-04-26T00:09:30.776Z,8.04672
2018-04-26T00:09:43.192Z,8.04672
2018-04-26T00:09:55.601Z,8.04672
2018-04-26T00:10:08.033Z,1.609344
2018-04-26T00:10:20.469Z,3.218688
2018-04-26T00:10:33.123Z,3.218688
2018-04-26T00:10:45.604Z,3.218688
2018-04-26T00:10:58.078Z,3.218688
2018-04-26T00:11:10.567Z,3.218688
2018-04-26T00:11:23.006Z,3.218688
2018-04-26T00:11:35.425Z,3.218688
2018-04-26T00:11:47.832Z,3.218688
2018-04-26T00:12:00.254Z,3.218688
2018-04-26T00:12:12.671Z,8.04672
2018-04-26T00:12:25.106Z,8.04672
2018-04-26T00:12:37.541Z,8.04672
2018-04-26T00:12:49.946Z,8.04672
2018-04-26T00:13:02.541Z,8.04672
2018-04-26T00:13:14.964Z,3.218688
2018-04-26T00:13:27.379Z,3.218688
2018-04-26T00:13:39.898Z,3.218688
2018-04-26T00:13:52.331Z,3.218688
2018-04-26T00:14:04.747Z,1.609344
2018-04-26T00:14:17.250Z,3.218688
2018-04-26T00:14:29.667Z,3.218688
2018-04-26T00:14:42.099Z,3.218688
2018-04-26T00:14:54.503Z,3.218688
2018-04-26T00:15:06.933Z,3.218688
2018-04-26T00:15:19.347Z,9.656064
2018-04-26T00:15:31.767Z,9.656064
2018-04-26T00:15:44.173Z,9.656064
2018-04-26T00:15:56.609Z,9.656064
2018-04-26T00:16:09.031Z,3.218688
2018-04-26T00:16:21.437Z,6.437376
2018-04-26T00:16:33.858Z,8.04672
2018-04-26T00:16:46.257Z,8.04672
2018-04-26T00:16:58.699Z,8.04672
2018-04-26T00:17:11.110Z,3.218688
2018-04-26T00:17:23.528Z,8.04672
2018-04-26T00:17:35.952Z,8.04672
2018-04-26T00:17:48.372Z,9.656064
2018-04-26T00:18:00.777Z,9.656064
2018-04-26T00:18:13.194Z,6.437376
2018-04-26T00:18:25.851Z,6.437376
2018-04-26T00:18:38.485Z,6.437376
2018-04-26T00:18:50.907Z,6.437376
2018-04-26T00:19:03.312Z,6.437376
2018-04-26T00:19:15.747Z,1.609344
2018-04-26T00:19:28.290Z,1.609344
2018-04-26T00:19:40.712Z,1.609344
2018-04-26T00:19:53.131Z,8.04672
2018-04-26T00:20:05.540Z,4.828032
2018-04-26T00:20:17.971Z,4.828032
2018-04-26T00:20:30.380Z,4.828032
2018-04-26T00:20:42.795Z,4.828032
2018-04-26T00:20:55.195Z,4.828032
2018-04-26T00:21:07.615Z,3.218688
2018-04-26T00:21:20.026Z,3.218688
2018-04-26T00:21:32.436Z,3.218688
2018-04-26T00:21:44.857Z,3.218688
2018-04-26T00:21:57.275Z,3.218688
2018-04-26T00:22:09.693Z,1.609344
2018-04-26T00:22:22.102Z,8.04672
2018-04-26T00:22:34.518Z,8.04672
2018-04-26T00:22:46.935Z,8.04672
2018-04-26T00:22:59.454Z,8.04672
2018-04-26T00:23:11.859Z,1.609344
2018-04-26T00:23:24.266Z,1.609344
2018-04-26T00:23:36.703Z,6.437376
2018-04-26T00:23:49.125Z,6.437376
2018-04-26T00:24:01.540Z,6.437376
2018-04-26T00:24:13.941Z,3.218688
2018-04-26T00:24:26.345Z,3.218688
2018-04-26T00:24:38.751Z,4.828032
2018-04-26T00:24:51.161Z,4.828032
2018-04-26T00:25:03.590Z,4.828032
2018-04-26T00:25:16.015Z,1.609344
2018-04-26T00:25:28.427Z,1.609344
2018-04-26T00:25:40.846Z,3.218688
2018-04-26T00:25:53.243Z,3.218688
2018-04-26T00:26:05.665Z,3.218688
2018-04-26T00:26:18.154Z,3.218688
2018-04-26T00:26:30.555Z,3.218688
2018-04-26T00:26:42.972Z,3.218688
2018-04-26T00:26:55.388Z,3.218688
2018-04-26T00:27:07.795Z,1.609344
2018-04-26T00:27:20.271Z,3.218688
2018-04-26T00:27:32.684Z,3.218688
2018-04-26T00:27:45.114Z,6.437376
2018-04-26T00:27:57.664Z,6.437376
2018-04-26T00:28:10.084Z,3.218688
2018-04-26T00:28:22.508Z,3.218688
2018-04-26T00:28:34.921Z,3.218688
2018-04-26T00:28:47.356Z,3.218688
2018-04-26T00:28:59.775Z,3.218688
2018-04-26T00:29:12.194Z,1.609344
2018-04-26T00:29:24.611Z,3.218688
2018-04-26T00:29:37.020Z,3.218688
2018-04-26T00:29:49.436Z,8.04672
2018-04-26T00:30:01.835Z,8.04672
2018-04-26T00:30:14.256Z,6.437376
2018-04-26T00:30:26.681Z,6.437376
2018-04-26T00:30:39.087Z,6.437376
2018-04-26T00:30:51.523Z,6.437376
2018-04-26T00:31:03.949Z,6.437376
2018-04-26T00:31:16.381Z,1.609344
2018-04-26T00:31:28.801Z,1.609344
2018-04-26T00:31:41.215Z,3.218688
2018-04-26T00:31:53.635Z,3.218688
2018-04-26T00:32:06.057Z,1.609344
2018-04-26T00:32:18.494Z,1.609344
2018-04-26T00:32:30.913Z,3.218688
2018-04-26T00:32:43.328Z,3.218688
2018-04-26T00:32:55.981Z,3.218688
2018-04-26T00:33:08.404Z,3.218688
2018-04-26T00:33:20.824Z,3.218688
2018-04-26T00:33:33.244Z,8.04672
2018-04-26T00:33:45.669Z,8.04672
2018-04-26T00:33:58.092Z,8.04672
2018-04-26T00:34:10.512Z,8.04672
2018-04-26T00:34:22.915Z,8.04672
2018-04-26T00:34:35.439Z,8.04672
2018-04-26T00:34:47.846Z,8.04672
2018-04-26T00:35:00.262Z,8.04672
2018-04-26T00:35:12.793Z,1.609344
2018-04-26T00:35:25.209Z,1.609344
2018-04-26T00:35:37.627Z,1.609344
2018-04-26T00:35:50.055Z,1.609344
2018-04-26T00:36:02.462Z,1.609344
2018-04-26T00:36:14.883Z,3.218688
2018-04-26T00:36:27.299Z,3.218688
2018-04-26T00:36:39.722Z,3.218688
2018-04-26T00:36:52.138Z,3.218688
2018-04-26T00:37:04.565Z,1.609344
2018-04-26T00:37:16.990Z,6.437376
2018-04-26T00:37:29.558Z,6.437376
2018-04-26T00:37:41.961Z,6.437376
2018-04-26T00:37:54.379Z,6.437376
2018-04-26T00:38:06.792Z,0
2018-04-26T00:38:19.212Z,1.609344
2018-04-26T00:38:31.642Z,4.828032
2018-04-26T00:38:44.052Z,9.656064
2018-04-26T00:38:56.479Z,9.656064
2018-04-26T00:39:08.905Z,3.218688
2018-04-26T00:39:21.391Z,3.218688
2018-04-26T00:39:33.796Z,4.828032
2018-04-26T00:39:46.213Z,8.04672
2018-04-26T00:39:58.625Z,9.656064
2018-04-26T00:40:11.036Z,6.437376
2018-04-26T00:40:23.442Z,6.437376
2018-04-26T00:40:35.839Z,6.437376
2018-04-26T00:40:48.240Z,9.656064
2018-04-26T00:41:00.649Z,9.656064
2018-04-26T00:41:13.081Z,9.656064
2018-04-26T00:41:25.578Z,9.656064
2018-04-26T00:41:37.983Z,9.656064
2018-04-26T00:41:50.421Z,9.656064
2018-04-26T00:42:02.830Z,9.656064
2018-04-26T00:42:15.235Z,3.218688
2018-04-26T00:42:27.867Z,3.218688
2018-04-26T00:42:40.272Z,3.218688
2018-04-26T00:42:52.688Z,3.218688
2018-04-26T00:43:05.192Z,8.04672
2018-04-26T00:43:17.600Z,8.04672
2018-04-26T00:43:30.041Z,8.04672
2018-04-26T00:43:42.454Z,8.04672
2018-04-26T00:43:54.866Z,8.04672
2018-04-26T00:44:07.287Z,6.437376
2018-04-26T00:44:19.753Z,6.437376
2018-04-26T00:44:32.239Z,6.437376
2018-04-26T00:44:44.657Z,6.437376
2018-04-26T00:44:57.068Z,6.437376
2018-04-26T00:45:09.499Z,1.609344
2018-04-26T00:45:22.206Z,6.437376
2018-04-26T00:45:34.737Z,8.04672
2018-04-26T00:45:47.270Z,8.04672
2018-04-26T00:45:59.686Z,8.04672
2018-04-26T00:46:12.127Z,3.218688
2018-04-26T00:46:24.545Z,3.218688
2018-04-26T00:46:36.959Z,3.218688
2018-04-26T00:46:49.379Z,3.218688
2018-04-26T00:47:01.782Z,3.218688
2018-04-26T00:47:14.194Z,1.609344
2018-04-26T00:47:26.648Z,1.609344
2018-04-26T00:47:39.070Z,3.218688
2018-04-26T00:47:51.481Z,6.437376
2018-04-26T00:48:04.586Z,1.609344
2018-04-26T00:48:17.238Z,1.609344
2018-04-26T00:48:29.638Z,1.609344
2018-04-26T00:48:42.045Z,3.218688
2018-04-26T00:48:54.456Z,3.218688
2018-04-26T00:49:06.868Z,0
2018-04-26T00:49:19.280Z,1.609344
2018-04-26T00:49:31.686Z,3.218688
2018-04-26T00:49:44.106Z,8.04672
2018-04-26T00:49:56.526Z,11.265408
2018-04-26T00:50:09.190Z,8.04672
2018-04-26T00:50:21.597Z,9.656064
2018-04-26T00:50:34.004Z,9.656064
2018-04-26T00:50:46.416Z,9.656064
2018-04-26T00:50:58.824Z,9.656064
2018-04-26T00:51:11.244Z,8.04672
2018-04-26T00:51:23.654Z,8.04672
2018-04-26T00:51:36.068Z,8.04672
2018-04-26T00:51:48.484Z,8.04672
2018-04-26T00:52:00.896Z,8.04672
2018-04-26T00:52:13.303Z,1.609344
2018-04-26T00:52:25.707Z,1.609344
2018-04-26T00:52:38.112Z,1.609344
2018-04-26T00:52:50.537Z,1.609344
2018-04-26T00:53:02.938Z,3.218688
2018-04-26T00:53:15.341Z,3.218688
2018-04-26T00:53:27.754Z,3.218688
2018-04-26T00:53:40.163Z,3.218688
2018-04-26T00:53:52.572Z,3.218688
2018-04-26T00:54:04.979Z,1.609344
2018-04-26T00:54:17.407Z,1.609344
2018-04-26T00:54:29.836Z,3.218688
2018-04-26T00:54:42.232Z,3.218688
2018-04-26T00:54:54.647Z,3.218688
2018-04-26T00:55:07.125Z,3.218688
2018-04-26T00:55:19.626Z,4.828032
2018-04-26T00:55:32.042Z,4.828032
2018-04-26T00:55:44.443Z,8.04672
2018-04-26T00:55:56.849Z,8.04672
2018-04-26T00:56:09.272Z,3.218688
2018-04-26T00:56:21.717Z,3.218688
2018-04-26T00:56:34.115Z,3.218688
2018-04-26T00:56:46.524Z,4.828032
2018-04-26T00:56:58.986Z,6.437376
2018-04-26T00:57:11.400Z,3.218688
2018-04-26T00:57:23.810Z,3.218688
2018-04-26T00:57:36.231Z,3.218688
2018-04-26T00:57:48.647Z,3.218688
2018-04-26T00:58:01.080Z,3.218688
2018-04-26T00:58:13.502Z,3.218688
2018-04-26T00:58:25.900Z,3.218688
2018-04-26T00:58:38.311Z,3.218688
2018-04-26T00:58:50.727Z,3.218688
2018-04-26T00:59:03.152Z,3.218688
2018-04-26T00:59:15.561Z,3.218688
2018-04-26T00:59:27.972Z,3.218688
2018-04-26T00:59:40.376Z,3.218688
2018-04-26T00:59:52.842Z,9.656064
2018-04-26T01:00:05.304Z,4.828032
2018-04-26T01:00:17.779Z,4.828032
2018-04-26T01:00:30.238Z,6.437376
2018-04-26T01:00:42.681Z,6.437376
2018-04-26T01:00:55.112Z,6.437376
2018-04-26T01:01:07.542Z,8.04672
2018-04-26T01:01:20.040Z,8.04672
2018-04-26T01:01:32.465Z,8.04672
2018-04-26T01:01:44.881Z,8.04672
2018-04-26T01:01:57.393Z,8.04672
2018-04-26T01:02:09.841Z,0
2018-04-26T01:02:22.262Z,0
2018-04-26T01:02:34.680Z,0
2018-04-26T01:02:47.098Z,0
2018-04-26T01:02:59.510Z,1.609344
2018-04-26T01:03:11.988Z,3.218688
2018-04-26T01:03:24.422Z,3.218688
2018-04-26T01:03:36.852Z,3.218688
2018-04-26T01:03:49.271Z,3.218688
2018-04-26T01:04:01.681Z,3.218688
2018-04-26T01:04:14.098Z,3.218688
2018-04-26T01:04:26.509Z,3.218688
2018-04-26T01:04:38.924Z,3.218688
2018-04-26T01:04:51.338Z,3.218688
2018-04-26T01:05:03.934Z,3.218688
2018-04-26T01:05:16.416Z,1.609344
2018-04-26T01:05:28.857Z,1.609344
2018-04-26T01:05:41.311Z,1.609344
2018-04-26T01:05:53.722Z,1.609344
2018-04-26T01:06:06.168Z,1.609344
2018-04-26T01:06:18.619Z,3.218688
2018-04-26T01:06:31.024Z,3.218688
2018-04-26T01:06:43.427Z,3.218688
2018-04-26T01:06:55.864Z,3.218688
2018-04-26T01:07:08.271Z,1.609344
2018-04-26T01:07:20.687Z,1.609344
2018-04-26T01:07:33.170Z,1.609344
2018-04-26T01:07:45.591Z,1.609344
2018-04-26T01:07:58.049Z,1.609344
2018-04-26T01:08:10.465Z,0
2018-04-26T01:08:22.877Z,3.218688
2018-04-26T01:08:35.306Z,3.218688
2018-04-26T01:08:47.712Z,3.218688
2018-04-26T01:09:00.132Z,3.218688
2018-04-26T01:09:12.537Z,3.218688
2018-04-26T01:09:24.937Z,3.218688
2018-04-26T01:09:37.492Z,3.218688
2018-04-26T01:09:49.907Z,3.218688
2018-04-26T01:10:02.322Z,3.218688
2018-04-26T01:10:14.743Z,3.218688
2018-04-26T01:10:27.163Z,4.828032
2018-04-26T01:10:39.687Z,4.828032
2018-04-26T01:10:52.122Z,4.828032
2018-04-26T01:11:04.556Z,4.828032
2018-04-26T01:11:16.977Z,4.828032
2018-04-26T01:11:29.382Z,4.828032
2018-04-26T01:11:41.801Z,4.828032
2018-04-26T01:11:54.266Z,4.828032
2018-04-26T01:12:06.683Z,3.218688
2018-04-26T01:12:19.121Z,6.437376
2018-04-26T01:12:31.534Z,6.437376
2018-04-26T01:12:43.960Z,6.437376
2018-04-26T01:12:56.371Z,6.437376
2018-04-26T01:13:08.800Z,1.609344
2018-04-26T01:13:21.223Z,3.218688
2018-04-26T01:13:33.751Z,4.828032
2018-04-26T01:13:46.173Z,8.04672
2018-04-26T01:13:58.586Z,8.04672
2018-04-26T01:14:11.023Z,1.609344
2018-04-26T01:14:23.450Z,1.609344
2018-04-26T01:14:35.946Z,1.609344
2018-04-26T01:14:48.358Z,8.04672
2018-04-26T01:15:00.846Z,8.04672
2018-04-26T01:15:13.265Z,3.218688
2018-04-26T01:15:25.675Z,3.218688
2018-04-26T01:15:38.082Z,3.218688
2018-04-26T01:15:50.557Z,3.218688
2018-04-26T01:16:02.973Z,3.218688
2018-04-26T01:16:15.401Z,1.609344
2018-04-26T01:16:27.810Z,4.828032
2018-04-26T01:16:40.228Z,4.828032
2018-04-26T01:16:52.649Z,4.828032
2018-04-26T01:17:05.064Z,1.609344
2018-04-26T01:17:17.484Z,3.218688
2018-04-26T01:17:29.905Z,3.218688
2018-04-26T01:17:42.304Z,3.218688
2018-04-26T01:17:54.718Z,3.218688
2018-04-26T01:18:07.126Z,1.609344
2018-04-26T01:18:19.533Z,6.437376
2018-04-26T01:18:32.289Z,6.437376
2018-04-26T01:18:44.824Z,8.04672
2018-04-26T01:18:57.231Z,8.04672
2018-04-26T01:19:09.719Z,4.828032
2018-04-26T01:19:22.230Z,4.828032
2018-04-26T01:19:34.680Z,6.437376
2018-04-26T01:19:47.104Z,6.437376
2018-04-26T01:19:59.693Z,6.437376
2018-04-26T01:20:12.947Z,8.04672
2018-04-26T01:20:25.371Z,8.04672
2018-04-26T01:20:37.866Z,8.04672
2018-04-26T01:20:50.297Z,8.04672
2018-04-26T01:21:02.711Z,8.04672
2018-04-26T01:21:15.120Z,6.437376
2018-04-26T01:21:27.528Z,6.437376
2018-04-26T01:21:39.932Z,6.437376
2018-04-26T01:21:52.353Z,6.437376
2018-04-26T01:22:04.763Z,3.218688
2018-04-26T01:22:17.189Z,4.828032
2018-04-26T01:22:29.590Z,4.828032
2018-04-26T01:22:42.015Z,4.828032
2018-04-26T01:22:54.482Z,4.828032
2018-04-26T01:23:06.886Z,3.218688
2018-04-26T01:23:19.298Z,3.218688
2018-04-26T01:23:31.727Z,3.218688
2018-04-26T01:23:44.131Z,3.218688
2018-04-26T01:23:56.531Z,3.218688
2018-04-26T01:24:08.961Z,6.437376
2018-04-26T01:24:21.421Z,6.437376
2018-04-26T01:24:33.839Z,6.437376
2018-04-26T01:24:46.250Z,6.437376
2018-04-26T01:24:58.674Z,11.265408
2018-04-26T01:25:11.096Z,8.04672
2018-04-26T01:25:23.499Z,8.04672
2018-04-26T01:25:35.901Z,8.04672
2018-04-26T01:25:48.313Z,8.04672
2018-04-26T01:26:00.709Z,8.04672
2018-04-26T01:26:13.127Z,3.218688
2018-04-26T01:26:25.524Z,3.218688
2018-04-26T01:26:37.939Z,3.218688
2018-04-26T01:26:50.345Z,3.218688
2018-04-26T01:27:02.759Z,4.828032
2018-04-26T01:27:15.232Z,3.218688
2018-04-26T01:27:27.637Z,8.04672
2018-04-26T01:27:40.061Z,9.656064
2018-04-26T01:27:52.562Z,9.656064
2018-04-26T01:28:04.970Z,9.656064
2018-04-26T01:28:17.384Z,9.656064
2018-04-26T01:28:29.814Z,9.656064
2018-04-26T01:28:42.257Z,9.656064
2018-04-26T01:28:54.660Z,9.656064
2018-04-26T01:29:07.078Z,6.437376
2018-04-26T01:29:19.493Z,8.04672
2018-04-26T01:29:31.902Z,8.04672
2018-04-26T01:29:44.326Z,8.04672
2018-04-26T01:29:56.736Z,8.04672
2018-04-26T01:30:09.150Z,3.218688
2018-04-26T01:30:21.558Z,4.828032
2018-04-26T01:30:33.965Z,4.828032
2018-04-26T01:30:46.365Z,9.656064
2018-04-26T01:30:58.784Z,11.265408
2018-04-26T01:31:11.195Z,8.04672
2018-04-26T01:31:23.610Z,8.04672
2018-04-26T01:31:36.020Z,8.04672
2018-04-26T01:31:48.434Z,8.04672
2018-04-26T01:32:00.866Z,8.04672
2018-04-26T01:32:13.282Z,8.04672
2018-04-26T01:32:25.696Z,8.04672
2018-04-26T01:32:38.094Z,8.04672
2018-04-26T01:32:50.732Z,8.04672
2018-04-26T01:33:03.229Z,8.04672
2018-04-26T01:33:15.644Z,3.218688
2018-04-26T01:33:28.054Z,3.218688
2018-04-26T01:33:40.489Z,3.218688
2018-04-26T01:33:52.970Z,3.218688
2018-04-26T01:34:05.385Z,8.04672
2018-04-26T01:34:17.803Z,8.04672
2018-04-26T01:34:30.229Z,8.04672
2018-04-26T01:34:42.637Z,8.04672
2018-04-26T01:34:55.054Z,8.04672
2018-04-26T01:35:07.471Z,8.04672
2018-04-26T01:35:19.943Z,8.04672
2018-04-26T01:35:32.359Z,8.04672
2018-04-26T01:35:44.833Z,8.04672
2018-04-26T01:35:57.258Z,8.04672
2018-04-26T01:36:09.681Z,1.609344
2018-04-26T01:36:22.086Z,3.218688
2018-04-26T01:36:34.491Z,8.04672
2018-04-26T01:36:46.893Z,8.04672
2018-04-26T01:36:59.297Z,8.04672
2018-04-26T01:37:11.697Z,1.609344
2018-04-26T01:37:24.100Z,3.218688
2018-04-26T01:37:36.509Z,6.437376
2018-04-26T01:37:48.918Z,6.437376
2018-04-26T01:38:01.524Z,6.437376
2018-04-26T01:38:13.924Z,3.218688
2018-04-26T01:38:26.342Z,6.437376
2018-04-26T01:38:38.769Z,8.04672
2018-04-26T01:38:51.188Z,9.656064
2018-04-26T01:39:03.591Z,9.656064
2018-04-26T01:39:16.009Z,9.656064
2018-04-26T01:39:28.447Z,9.656064
2018-04-26T01:39:40.868Z,9.656064
2018-04-26T01:39:53.270Z,9.656064
2018-04-26T01:40:05.677Z,1.609344
2018-04-26T01:40:18.108Z,8.04672
2018-04-26T01:40:30.516Z,8.04672
2018-04-26T01:40:42.927Z,8.04672
2018-04-26T01:40:55.328Z,8.04672
2018-04-26T01:41:07.748Z,6.437376
2018-04-26T01:41:20.172Z,8.04672
2018-04-26T01:41:32.588Z,8.04672
2018-04-26T01:41:45.085Z,8.04672
2018-04-26T01:41:57.592Z,8.04672
2018-04-26T01:42:10.003Z,1.609344
2018-04-26T01:42:22.428Z,1.609344
2018-04-26T01:42:34.831Z,1.609344
2018-04-26T01:42:47.324Z,1.609344
2018-04-26T01:43:00.113Z,3.218688
2018-04-26T01:43:12.606Z,3.218688
2018-04-26T01:43:25.009Z,3.218688
2018-04-26T01:43:37.418Z,3.218688
2018-04-26T01:43:49.911Z,3.218688
2018-04-26T01:44:02.327Z,3.218688
2018-04-26T01:44:14.766Z,4.828032
2018-04-26T01:44:27.165Z,4.828032
2018-04-26T01:44:39.572Z,4.828032
2018-04-26T01:44:51.994Z,6.437376
2018-04-26T01:45:04.400Z,8.04672
2018-04-26T01:45:16.837Z,3.218688
2018-04-26T01:45:29.244Z,3.218688
2018-04-26T01:45:41.687Z,3.218688
2018-04-26T01:45:54.173Z,3.218688
2018-04-26T01:46:06.602Z,0
2018-04-26T01:46:19.103Z,1.609344
2018-04-26T01:46:31.521Z,1.609344
2018-04-26T01:46:43.926Z,1.609344
2018-04-26T01:46:56.350Z,3.218688
2018-04-26T01:47:08.758Z,1.609344
2018-04-26T01:47:21.225Z,1.609344
2018-04-26T01:47:33.653Z,8.04672
2018-04-26T01:47:46.128Z,8.04672
2018-04-26T01:47:58.579Z,8.04672
2018-04-26T01:48:11.249Z,3.218688
2018-04-26T01:48:23.660Z,8.04672
2018-04-26T01:48:36.151Z,8.04672
2018-04-26T01:48:48.562Z,8.04672
2018-04-26T01:49:00.983Z,8.04672
2018-04-26T01:49:13.413Z,1.609344
2018-04-26T01:49:25.821Z,1.609344
2018-04-26T01:49:38.224Z,1.609344
2018-04-26T01:49:50.657Z,1.609344
2018-04-26T01:50:03.075Z,6.437376
2018-04-26T01:50:15.602Z,6.437376
2018-04-26T01:50:28.018Z,6.437376
2018-04-26T01:50:40.438Z,6.437376
2018-04-26T01:50:52.858Z,6.437376
2018-04-26T01:51:05.284Z,6.437376
2018-04-26T01:51:17.689Z,6.437376
2018-04-26T01:51:30.138Z,8.04672
2018-04-26T01:51:42.548Z,9.656064
2018-04-26T01:51:54.953Z,9.656064
2018-04-26T01:52:07.380Z,3.218688
2018-04-26T01:52:19.820Z,8.04672
2018-04-26T01:52:32.236Z,8.04672
2018-04-26T01:52:44.662Z,8.04672
2018-04-26T01:52:57.063Z,9.656064
2018-04-26T01:53:09.795Z,3.218688
2018-04-26T01:53:22.276Z,3.218688
2018-04-26T01:53:34.682Z,3.218688
2018-04-26T01:53:47.090Z,6.437376
2018-04-26T01:53:59.514Z,6.437376
2018-04-26T01:54:11.937Z,3.218688
2018-04-26T01:54:24.352Z,8.04672
2018-04-26T01:54:36.803Z,8.04672
2018-04-26T01:54:49.230Z,8.04672
2018-04-26T01:55:01.644Z,8.04672
2018-04-26T01:55:14.092Z,1.609344
2018-04-26T01:55:26.513Z,1.609344
2018-04-26T01:55:38.921Z,1.609344
2018-04-26T01:55:51.325Z,1.609344
2018-04-26T01:56:03.752Z,4.828032
2018-04-26T01:56:16.168Z,4.828032
2018-04-26T01:56:28.571Z,6.437376
2018-04-26T01:56:40.991Z,6.437376
2018-04-26T01:56:53.417Z,6.437376
2018-04-26T01:57:05.924Z,3.218688
2018-04-26T01:57:18.340Z,3.218688
2018-04-26T01:57:30.759Z,4.828032
2018-04-26T01:57:43.182Z,4.828032
2018-04-26T01:57:55.586Z,4.828032
2018-04-26T01:58:07.992Z,6.437376
2018-04-26T01:58:20.438Z,6.437376
2018-04-26T01:58:32.853Z,8.04672
2018-04-26T01:58:45.274Z,8.04672
2018-04-26T01:58:57.712Z,8.04672
2018-04-26T01:59:10.180Z,4.828032
2018-04-26T01:59:22.610Z,6.437376
2018-04-26T01:59:35.029Z,6.437376
2018-04-26T01:59:47.450Z,6.437376
2018-04-26T01:59:59.864Z,6.437376
2018-04-26T02:00:12.321Z,6.437376
2018-04-26T02:00:24.844Z,8.04672
2018-04-26T02:00:37.330Z,9.656064
2018-04-26T02:00:49.766Z,9.656064
2018-04-26T02:01:02.190Z,9.656064
2018-04-26T02:01:14.607Z,3.218688
2018-04-26T02:01:27.028Z,6.437376
2018-04-26T02:01:39.442Z,8.04672
2018-04-26T02:01:51.877Z,8.04672
2018-04-26T02:02:04.305Z,8.04672
2018-04-26T02:02:16.718Z,8.04672
2018-04-26T02:02:29.120Z,8.04672
2018-04-26T02:02:41.538Z,8.04672
2018-04-26T02:02:54.045Z,8.04672
2018-04-26T02:03:06.566Z,3.218688
2018-04-26T02:03:19.059Z,6.437376
2018-04-26T02:03:31.486Z,6.437376
2018-04-26T02:03:43.905Z,6.437376
2018-04-26T02:03:56.326Z,6.437376
2018-04-26T02:04:08.752Z,3.218688
2018-04-26T02:04:21.182Z,3.218688
2018-04-26T02:04:33.604Z,4.828032
2018-04-26T02:04:46.029Z,6.437376
2018-04-26T02:04:58.447Z,6.437376
2018-04-26T02:05:10.871Z,9.656064
2018-04-26T02:05:23.282Z,9.656064
2018-04-26T02:05:35.704Z,9.656064
2018-04-26T02:05:48.116Z,9.656064
2018-04-26T02:06:00.521Z,9.656064
2018-04-26T02:06:12.932Z,6.437376
2018-04-26T02:06:25.343Z,6.437376
2018-04-26T02:06:37.773Z,6.437376
2018-04-26T02:06:50.190Z,6.437376
2018-04-26T02:07:02.613Z,6.437376
2018-04-26T02:07:15.031Z,3.218688
2018-04-26T02:07:27.442Z,3.218688
2018-04-26T02:07:39.931Z,3.218688
2018-04-26T02:07:52.353Z,6.437376
2018-04-26T02:08:04.768Z,1.609344
2018-04-26T02:08:17.211Z,6.437376
2018-04-26T02:08:29.635Z,8.04672
2018-04-26T02:08:42.065Z,8.04672
2018-04-26T02:08:54.468Z,8.04672
2018-04-26T02:09:06.892Z,6.437376
2018-04-26T02:09:19.314Z,8.04672
2018-04-26T02:09:31.756Z,9.656064
2018-04-26T02:09:44.230Z,11.265408
2018-04-26T02:09:56.647Z,11.265408
2018-04-26T02:10:09.093Z,3.218688
2018-04-26T02:10:21.502Z,3.218688
2018-04-26T02:10:33.915Z,4.828032
2018-04-26T02:10:46.332Z,4.828032
2018-04-26T02:10:58.769Z,8.04672
2018-04-26T02:11:11.168Z,6.437376
2018-04-26T02:11:23.585Z,6.437376
2018-04-26T02:11:36.002Z,6.437376
2018-04-26T02:11:48.421Z,12.874752
2018-04-26T02:12:00.817Z,12.874752
2018-04-26T02:12:13.272Z,11.265408
2018-04-26T02:12:25.688Z,11.265408
2018-04-26T02:12:38.096Z,11.265408
2018-04-26T02:12:50.500Z,11.265408
2018-04-26T02:13:02.932Z,11.265408
2018-04-26T02:13:15.367Z,6.437376
2018-04-26T02:13:27.861Z,8.04672
2018-04-26T02:13:40.457Z,8.04672
2018-04-26T02:13:52.874Z,9.656064
2018-04-26T02:14:05.279Z,8.04672
2018-04-26T02:14:17.708Z,11.265408
2018-04-26T02:14:30.166Z,11.265408
2018-04-26T02:14:42.572Z,11.265408
2018-04-26T02:14:55.001Z,11.265408
2018-04-26T02:15:07.447Z,6.437376
2018-04-26T02:15:19.866Z,6.437376
2018-04-26T02:15:32.264Z,6.437376
2018-04-26T02:15:44.746Z,8.04672
2018-04-26T02:15:57.154Z,8.04672
2018-04-26T02:16:09.570Z,6.437376
2018-04-26T02:16:22.009Z,6.437376
2018-04-26T02:16:34.433Z,6.437376
2018-04-26T02:16:46.846Z,6.437376
2018-04-26T02:16:59.270Z,6.437376
2018-04-26T02:17:11.678Z,8.04672
2018-04-26T02:17:24.087Z,8.04672
2018-04-26T02:17:36.525Z,8.04672
2018-04-26T02:17:48.937Z,8.04672
2018-04-26T02:18:01.358Z,8.04672
2018-04-26T02:18:13.753Z,1.609344
2018-04-26T02:18:26.241Z,1.609344
2018-04-26T02:18:38.798Z,1.609344
2018-04-26T02:18:51.206Z,3.218688
2018-04-26T02:19:03.615Z,4.828032
2018-04-26T02:19:16.033Z,3.218688
2018-04-26T02:19:28.472Z,6.437376
2018-04-26T02:19:40.888Z,6.437376
2018-04-26T02:19:53.284Z,6.437376
2018-04-26T02:20:05.693Z,1.609344
2018-04-26T02:20:18.101Z,3.218688
2018-04-26T02:20:30.593Z,3.218688
2018-04-26T02:20:43.001Z,3.218688
2018-04-26T02:20:55.427Z,3.218688
2018-04-26T02:21:07.853Z,1.609344
2018-04-26T02:21:20.265Z,1.609344
2018-04-26T02:21:32.683Z,6.437376
2018-04-26T02:21:45.122Z,6.437376
2018-04-26T02:21:57.662Z,6.437376
2018-04-26T02:22:10.103Z,3.218688
2018-04-26T02:22:22.534Z,3.218688
2018-04-26T02:22:35.023Z,3.218688
2018-04-26T02:22:47.443Z,3.218688
2018-04-26T02:22:59.882Z,6.437376
2018-04-26T02:23:12.293Z,3.218688
2018-04-26T02:23:24.717Z,3.218688
2018-04-26T02:23:37.177Z,6.437376
2018-04-26T02:23:49.694Z,6.437376
2018-04-26T02:24:02.103Z,6.437376
2018-04-26T02:24:14.510Z,3.218688
2018-04-26T02:24:26.908Z,4.828032
2018-04-26T02:24:39.304Z,4.828032
2018-04-26T02:24:51.714Z,4.828032
2018-04-26T02:25:04.133Z,4.828032
2018-04-26T02:25:16.549Z,3.218688
2018-04-26T02:25:28.995Z,9.656064
2018-04-26T02:25:41.415Z,9.656064
2018-04-26T02:25:53.825Z,9.656064
2018-04-26T02:26:06.300Z,11.265408
2018-04-26T02:26:18.790Z,11.265408
2018-04-26T02:26:31.221Z,11.265408
2018-04-26T02:26:43.631Z,11.265408
2018-04-26T02:26:56.066Z,11.265408
2018-04-26T02:27:08.482Z,8.04672
2018-04-26T02:27:20.907Z,8.04672